sensor_id;sensor_type;location;lat;lon;timestamp;P1;durP1;ratioP1;P2;durP2;ratioP2
26756;SDS011;23848;49.798;10.228;2023-05-08T00:01:24;6.50;;;5.15;;
26756;SDS011;23848;49.798;10.228;2023-05-08T00:03:52;6.75;;;4.95;;
26756;SDS011;23848;49.798;10.228;2023-05-08T00:06:21;7.60;;;5.10;;
26756;SDS011;23848;49.798;10.228;2023-05-08T00:08:49;6.25;;;5.05;;
26756;SDS011;23848;49.798;10.228;2023-05-08T00:11:18;7.10;;;5.32;;
26756;SDS011;23848;49.798;10.228;2023-05-08T00:13:49;6.40;;;5.18;;
26756;SDS011;23848;49.798;10.228;2023-05-08T00:16:19;5.93;;;5.10;;
26756;SDS011;23848;49.798;10.228;2023-05-08T00:18:50;6.32;;;4.70;;
26756;SDS011;23848;49.798;10.228;2023-05-08T00:21:22;7.53;;;5.80;;
26756;SDS011;23848;49.798;10.228;2023-05-08T00:23:55;6.63;;;5.63;;
26756;SDS011;23848;49.798;10.228;2023-05-08T00:26:27;7.60;;;5.72;;
26756;SDS011;23848;49.798;10.228;2023-05-08T00:28:55;6.57;;;5.28;;
26756;SDS011;23848;49.798;10.228;2023-05-08T00:31:24;7.07;;;5.55;;
26756;SDS011;23848;49.798;10.228;2023-05-08T00:33:54;7.00;;;5.68;;
26756;SDS011;23848;49.798;10.228;2023-05-08T00:36:22;7.07;;;5.72;;
26756;SDS011;23848;49.798;10.228;2023-05-08T00:38:51;7.25;;;5.68;;
26756;SDS011;23848;49.798;10.228;2023-05-08T00:41:19;6.25;;;5.43;;
26756;SDS011;23848;49.798;10.228;2023-05-08T00:43:49;7.82;;;6.10;;
26756;SDS011;23848;49.798;10.228;2023-05-08T00:46:18;6.97;;;5.97;;
26756;SDS011;23848;49.798;10.228;2023-05-08T00:48:48;7.75;;;5.22;;
26756;SDS011;23848;49.798;10.228;2023-05-08T00:51:18;7.05;;;6.03;;
26756;SDS011;23848;49.798;10.228;2023-05-08T00:53:49;6.95;;;5.53;;
26756;SDS011;23848;49.798;10.228;2023-05-08T00:56:17;7.60;;;5.88;;
26756;SDS011;23848;49.798;10.228;2023-05-08T00:58:47;7.65;;;5.53;;
26756;SDS011;23848;49.798;10.228;2023-05-08T01:01:16;8.60;;;5.82;;
26756;SDS011;23848;49.798;10.228;2023-05-08T01:03:44;6.65;;;5.95;;
26756;SDS011;23848;49.798;10.228;2023-05-08T01:06:14;9.27;;;5.90;;
26756;SDS011;23848;49.798;10.228;2023-05-08T01:08:44;7.10;;;5.95;;
26756;SDS011;23848;49.798;10.228;2023-05-08T01:11:16;7.25;;;5.57;;
26756;SDS011;23848;49.798;10.228;2023-05-08T01:13:50;6.53;;;5.47;;
26756;SDS011;23848;49.798;10.228;2023-05-08T01:16:22;7.82;;;6.07;;
26756;SDS011;23848;49.798;10.228;2023-05-08T01:19:06;8.23;;;5.63;;
26756;SDS011;23848;49.798;10.228;2023-05-08T01:21:43;8.02;;;6.22;;
26756;SDS011;23848;49.798;10.228;2023-05-08T01:27:14;6.75;;;5.25;;
26756;SDS011;23848;49.798;10.228;2023-05-08T01:29:51;8.88;;;6.00;;
26756;SDS011;23848;49.798;10.228;2023-05-08T01:32:27;7.13;;;5.68;;
26756;SDS011;23848;49.798;10.228;2023-05-08T01:34:58;7.75;;;5.72;;
26756;SDS011;23848;49.798;10.228;2023-05-08T01:37:31;7.05;;;5.53;;
26756;SDS011;23848;49.798;10.228;2023-05-08T01:40:11;6.18;;;5.57;;
26756;SDS011;23848;49.798;10.228;2023-05-08T01:42:42;6.43;;;5.50;;
26756;SDS011;23848;49.798;10.228;2023-05-08T01:45:15;7.25;;;5.57;;
26756;SDS011;23848;49.798;10.228;2023-05-08T01:47:48;6.65;;;5.38;;
26756;SDS011;23848;49.798;10.228;2023-05-08T01:50:18;7.55;;;6.43;;
26756;SDS011;23848;49.798;10.228;2023-05-08T01:53:03;6.88;;;5.53;;
26756;SDS011;23848;49.798;10.228;2023-05-08T01:55:34;7.35;;;5.47;;
26756;SDS011;23848;49.798;10.228;2023-05-08T01:58:06;6.65;;;5.65;;
26756;SDS011;23848;49.798;10.228;2023-05-08T02:00:39;9.07;;;6.00;;
26756;SDS011;23848;49.798;10.228;2023-05-08T02:03:10;7.43;;;5.82;;
26756;SDS011;23848;49.798;10.228;2023-05-08T02:05:41;7.72;;;6.00;;
26756;SDS011;23848;49.798;10.228;2023-05-08T02:08:10;8.73;;;5.55;;
26756;SDS011;23848;49.798;10.228;2023-05-08T02:10:42;7.55;;;5.30;;
26756;SDS011;23848;49.798;10.228;2023-05-08T02:13:14;7.68;;;5.82;;
26756;SDS011;23848;49.798;10.228;2023-05-08T02:15:47;7.07;;;5.60;;
26756;SDS011;23848;49.798;10.228;2023-05-08T02:18:19;7.90;;;5.35;;
26756;SDS011;23848;49.798;10.228;2023-05-08T02:20:48;6.38;;;5.20;;
26756;SDS011;23848;49.798;10.228;2023-05-08T02:23:19;7.25;;;5.60;;
26756;SDS011;23848;49.798;10.228;2023-05-08T02:25:48;6.32;;;5.18;;
26756;SDS011;23848;49.798;10.228;2023-05-08T02:28:20;7.55;;;5.60;;
26756;SDS011;23848;49.798;10.228;2023-05-08T02:30:53;7.30;;;5.60;;
26756;SDS011;23848;49.798;10.228;2023-05-08T02:33:25;7.13;;;5.38;;
26756;SDS011;23848;49.798;10.228;2023-05-08T02:35:56;7.68;;;5.82;;
26756;SDS011;23848;49.798;10.228;2023-05-08T02:38:25;7.55;;;5.45;;
26756;SDS011;23848;49.798;10.228;2023-05-08T02:40:54;6.80;;;5.43;;
26756;SDS011;23848;49.798;10.228;2023-05-08T02:43:24;6.03;;;5.18;;
26756;SDS011;23848;49.798;10.228;2023-05-08T02:45:55;7.85;;;5.75;;
26756;SDS011;23848;49.798;10.228;2023-05-08T02:48:30;7.22;;;5.57;;
26756;SDS011;23848;49.798;10.228;2023-05-08T02:51:03;7.20;;;5.78;;
26756;SDS011;23848;49.798;10.228;2023-05-08T02:53:39;6.50;;;5.13;;
26756;SDS011;23848;49.798;10.228;2023-05-08T02:56:14;7.00;;;5.68;;
26756;SDS011;23848;49.798;10.228;2023-05-08T02:58:48;6.20;;;4.72;;
26756;SDS011;23848;49.798;10.228;2023-05-08T03:01:20;6.50;;;5.10;;
26756;SDS011;23848;49.798;10.228;2023-05-08T03:03:54;7.32;;;5.32;;
26756;SDS011;23848;49.798;10.228;2023-05-08T03:06:26;6.72;;;5.50;;
26756;SDS011;23848;49.798;10.228;2023-05-08T03:08:59;7.57;;;5.40;;
26756;SDS011;23848;49.798;10.228;2023-05-08T03:11:31;6.75;;;5.50;;
26756;SDS011;23848;49.798;10.228;2023-05-08T03:14:00;7.03;;;5.15;;
26756;SDS011;23848;49.798;10.228;2023-05-08T03:16:30;7.95;;;5.65;;
26756;SDS011;23848;49.798;10.228;2023-05-08T03:19:02;7.43;;;5.60;;
26756;SDS011;23848;49.798;10.228;2023-05-08T03:21:32;6.65;;;4.93;;
26756;SDS011;23848;49.798;10.228;2023-05-08T03:24:02;8.10;;;5.30;;
26756;SDS011;23848;49.798;10.228;2023-05-08T03:26:32;7.97;;;5.47;;
26756;SDS011;23848;49.798;10.228;2023-05-08T03:29:01;7.63;;;5.72;;
26756;SDS011;23848;49.798;10.228;2023-05-08T03:31:29;7.30;;;5.20;;
26756;SDS011;23848;49.798;10.228;2023-05-08T03:34:00;7.45;;;5.45;;
26756;SDS011;23848;49.798;10.228;2023-05-08T03:36:29;6.68;;;5.43;;
26756;SDS011;23848;49.798;10.228;2023-05-08T03:38:58;6.78;;;5.03;;
26756;SDS011;23848;49.798;10.228;2023-05-08T03:41:27;8.13;;;5.43;;
26756;SDS011;23848;49.798;10.228;2023-05-08T03:43:55;6.50;;;5.20;;
26756;SDS011;23848;49.798;10.228;2023-05-08T03:46:24;5.97;;;4.78;;
26756;SDS011;23848;49.798;10.228;2023-05-08T03:48:53;7.38;;;4.70;;
26756;SDS011;23848;49.798;10.228;2023-05-08T03:51:26;6.97;;;5.22;;
26756;SDS011;23848;49.798;10.228;2023-05-08T03:53:55;9.75;;;5.38;;
26756;SDS011;23848;49.798;10.228;2023-05-08T03:56:24;6.47;;;4.88;;
26756;SDS011;23848;49.798;10.228;2023-05-08T03:58:53;7.25;;;5.50;;
26756;SDS011;23848;49.798;10.228;2023-05-08T04:01:23;7.97;;;5.85;;
26756;SDS011;23848;49.798;10.228;2023-05-08T04:03:53;7.03;;;4.78;;
26756;SDS011;23848;49.798;10.228;2023-05-08T04:06:24;7.43;;;5.45;;
26756;SDS011;23848;49.798;10.228;2023-05-08T04:09:11;7.10;;;5.28;;
26756;SDS011;23848;49.798;10.228;2023-05-08T04:11:41;5.93;;;5.22;;
26756;SDS011;23848;49.798;10.228;2023-05-08T04:14:15;7.32;;;5.55;;
26756;SDS011;23848;49.798;10.228;2023-05-08T04:16:46;7.03;;;5.25;;
26756;SDS011;23848;49.798;10.228;2023-05-08T04:19:19;7.22;;;6.10;;
26756;SDS011;23848;49.798;10.228;2023-05-08T04:21:48;6.95;;;5.53;;
26756;SDS011;23848;49.798;10.228;2023-05-08T04:24:22;6.75;;;5.15;;
26756;SDS011;23848;49.798;10.228;2023-05-08T04:26:52;6.45;;;5.22;;
26756;SDS011;23848;49.798;10.228;2023-05-08T04:29:20;6.82;;;5.47;;
26756;SDS011;23848;49.798;10.228;2023-05-08T04:31:49;7.00;;;5.70;;
26756;SDS011;23848;49.798;10.228;2023-05-08T04:34:18;7.80;;;5.00;;
26756;SDS011;23848;49.798;10.228;2023-05-08T04:36:46;7.03;;;4.82;;
26756;SDS011;23848;49.798;10.228;2023-05-08T04:39:17;6.45;;;5.03;;
26756;SDS011;23848;49.798;10.228;2023-05-08T04:41:49;7.43;;;5.35;;
26756;SDS011;23848;49.798;10.228;2023-05-08T04:44:20;8.38;;;4.97;;
26756;SDS011;23848;49.798;10.228;2023-05-08T04:46:48;6.13;;;5.10;;
26756;SDS011;23848;49.798;10.228;2023-05-08T04:49:16;7.32;;;5.05;;
26756;SDS011;23848;49.798;10.228;2023-05-08T04:51:45;6.47;;;4.70;;
26756;SDS011;23848;49.798;10.228;2023-05-08T04:54:13;6.90;;;4.68;;
26756;SDS011;23848;49.798;10.228;2023-05-08T04:56:41;7.22;;;4.88;;
26756;SDS011;23848;49.798;10.228;2023-05-08T04:59:11;6.68;;;4.65;;
26756;SDS011;23848;49.798;10.228;2023-05-08T05:01:41;6.57;;;4.82;;
26756;SDS011;23848;49.798;10.228;2023-05-08T05:04:10;7.15;;;5.45;;
26756;SDS011;23848;49.798;10.228;2023-05-08T05:06:38;6.07;;;4.68;;
26756;SDS011;23848;49.798;10.228;2023-05-08T05:09:07;6.38;;;4.90;;
26756;SDS011;23848;49.798;10.228;2023-05-08T05:11:37;6.40;;;4.95;;
26756;SDS011;23848;49.798;10.228;2023-05-08T05:14:05;6.35;;;4.65;;
26756;SDS011;23848;49.798;10.228;2023-05-08T05:16:35;6.38;;;4.65;;
26756;SDS011;23848;49.798;10.228;2023-05-08T05:19:03;5.90;;;4.70;;
26756;SDS011;23848;49.798;10.228;2023-05-08T05:21:32;6.70;;;4.90;;
26756;SDS011;23848;49.798;10.228;2023-05-08T05:24:03;6.25;;;4.65;;
26756;SDS011;23848;49.798;10.228;2023-05-08T05:26:31;6.18;;;4.80;;
26756;SDS011;23848;49.798;10.228;2023-05-08T05:29:02;8.18;;;5.00;;
26756;SDS011;23848;49.798;10.228;2023-05-08T05:31:30;6.35;;;5.03;;
26756;SDS011;23848;49.798;10.228;2023-05-08T05:34:00;6.47;;;5.20;;
26756;SDS011;23848;49.798;10.228;2023-05-08T05:36:28;6.95;;;4.32;;
26756;SDS011;23848;49.798;10.228;2023-05-08T05:38:57;6.68;;;5.15;;
26756;SDS011;23848;49.798;10.228;2023-05-08T05:41:25;6.55;;;5.00;;
26756;SDS011;23848;49.798;10.228;2023-05-08T05:43:53;6.03;;;4.90;;
26756;SDS011;23848;49.798;10.228;2023-05-08T05:46:22;6.40;;;4.95;;
26756;SDS011;23848;49.798;10.228;2023-05-08T05:48:53;6.50;;;5.10;;
26756;SDS011;23848;49.798;10.228;2023-05-08T05:51:23;6.20;;;4.95;;
26756;SDS011;23848;49.798;10.228;2023-05-08T05:53:52;6.87;;;4.90;;
26756;SDS011;23848;49.798;10.228;2023-05-08T05:56:22;6.10;;;4.47;;
26756;SDS011;23848;49.798;10.228;2023-05-08T05:58:50;6.15;;;4.90;;
26756;SDS011;23848;49.798;10.228;2023-05-08T06:01:19;6.35;;;4.88;;
26756;SDS011;23848;49.798;10.228;2023-05-08T06:03:49;6.00;;;4.95;;
26756;SDS011;23848;49.798;10.228;2023-05-08T06:06:18;6.38;;;4.80;;
26756;SDS011;23848;49.798;10.228;2023-05-08T06:08:48;6.85;;;5.20;;
26756;SDS011;23848;49.798;10.228;2023-05-08T06:11:17;6.90;;;5.43;;
26756;SDS011;23848;49.798;10.228;2023-05-08T06:13:45;6.65;;;5.00;;
26756;SDS011;23848;49.798;10.228;2023-05-08T06:16:15;7.55;;;5.80;;
26756;SDS011;23848;49.798;10.228;2023-05-08T06:18:46;6.00;;;4.60;;
26756;SDS011;23848;49.798;10.228;2023-05-08T06:21:14;8.05;;;5.20;;
26756;SDS011;23848;49.798;10.228;2023-05-08T06:23:42;7.28;;;4.88;;
26756;SDS011;23848;49.798;10.228;2023-05-08T06:26:12;7.13;;;4.43;;
26756;SDS011;23848;49.798;10.228;2023-05-08T06:28:41;6.60;;;4.75;;
26756;SDS011;23848;49.798;10.228;2023-05-08T06:31:09;6.22;;;5.22;;
26756;SDS011;23848;49.798;10.228;2023-05-08T06:33:38;6.03;;;5.13;;
26756;SDS011;23848;49.798;10.228;2023-05-08T06:36:06;7.35;;;5.65;;
26756;SDS011;23848;49.798;10.228;2023-05-08T06:38:34;7.38;;;5.80;;
26756;SDS011;23848;49.798;10.228;2023-05-08T06:41:03;6.93;;;5.15;;
26756;SDS011;23848;49.798;10.228;2023-05-08T06:43:33;8.68;;;5.53;;
26756;SDS011;23848;49.798;10.228;2023-05-08T06:46:01;7.60;;;5.53;;
26756;SDS011;23848;49.798;10.228;2023-05-08T06:48:30;7.00;;;5.28;;
26756;SDS011;23848;49.798;10.228;2023-05-08T06:50:59;6.80;;;5.63;;
26756;SDS011;23848;49.798;10.228;2023-05-08T06:53:27;8.98;;;5.68;;
26756;SDS011;23848;49.798;10.228;2023-05-08T06:55:55;6.57;;;5.25;;
26756;SDS011;23848;49.798;10.228;2023-05-08T06:58:24;6.43;;;4.95;;
26756;SDS011;23848;49.798;10.228;2023-05-08T07:00:53;6.68;;;5.50;;
26756;SDS011;23848;49.798;10.228;2023-05-08T07:03:22;6.65;;;5.07;;
26756;SDS011;23848;49.798;10.228;2023-05-08T07:05:50;6.47;;;5.28;;
26756;SDS011;23848;49.798;10.228;2023-05-08T07:08:18;7.15;;;5.55;;
26756;SDS011;23848;49.798;10.228;2023-05-08T07:10:47;8.02;;;6.05;;
26756;SDS011;23848;49.798;10.228;2023-05-08T07:13:15;6.78;;;4.70;;
26756;SDS011;23848;49.798;10.228;2023-05-08T07:15:47;8.68;;;5.32;;
26756;SDS011;23848;49.798;10.228;2023-05-08T07:18:17;7.28;;;5.30;;
26756;SDS011;23848;49.798;10.228;2023-05-08T07:20:45;6.38;;;4.90;;
26756;SDS011;23848;49.798;10.228;2023-05-08T07:23:13;6.70;;;5.22;;
26756;SDS011;23848;49.798;10.228;2023-05-08T07:25:42;7.70;;;5.50;;
26756;SDS011;23848;49.798;10.228;2023-05-08T07:28:10;7.00;;;5.50;;
26756;SDS011;23848;49.798;10.228;2023-05-08T07:30:38;8.07;;;5.30;;
26756;SDS011;23848;49.798;10.228;2023-05-08T07:33:07;6.82;;;5.30;;
26756;SDS011;23848;49.798;10.228;2023-05-08T07:35:38;6.95;;;5.55;;
26756;SDS011;23848;49.798;10.228;2023-05-08T07:38:06;7.32;;;5.47;;
26756;SDS011;23848;49.798;10.228;2023-05-08T07:40:35;7.07;;;5.22;;
26756;SDS011;23848;49.798;10.228;2023-05-08T07:43:03;6.22;;;5.35;;
26756;SDS011;23848;49.798;10.228;2023-05-08T07:45:32;8.05;;;5.40;;
26756;SDS011;23848;49.798;10.228;2023-05-08T07:48:00;7.20;;;5.63;;
26756;SDS011;23848;49.798;10.228;2023-05-08T07:50:29;9.95;;;5.75;;
26756;SDS011;23848;49.798;10.228;2023-05-08T07:53:01;8.23;;;5.40;;
26756;SDS011;23848;49.798;10.228;2023-05-08T07:55:30;7.63;;;5.90;;
26756;SDS011;23848;49.798;10.228;2023-05-08T07:57:58;6.85;;;5.22;;
26756;SDS011;23848;49.798;10.228;2023-05-08T08:00:26;9.23;;;6.55;;
26756;SDS011;23848;49.798;10.228;2023-05-08T08:02:55;11.13;;;5.57;;
26756;SDS011;23848;49.798;10.228;2023-05-08T08:05:23;7.30;;;5.80;;
26756;SDS011;23848;49.798;10.228;2023-05-08T08:07:53;9.30;;;6.38;;
26756;SDS011;23848;49.798;10.228;2023-05-08T08:10:23;7.22;;;6.03;;
26756;SDS011;23848;49.798;10.228;2023-05-08T08:12:51;7.70;;;5.97;;
26756;SDS011;23848;49.798;10.228;2023-05-08T08:15:19;6.90;;;5.55;;
26756;SDS011;23848;49.798;10.228;2023-05-08T08:17:48;8.02;;;5.65;;
26756;SDS011;23848;49.798;10.228;2023-05-08T08:20:17;8.10;;;5.90;;
26756;SDS011;23848;49.798;10.228;2023-05-08T08:22:45;8.02;;;5.15;;
26756;SDS011;23848;49.798;10.228;2023-05-08T08:25:14;6.88;;;5.22;;
26756;SDS011;23848;49.798;10.228;2023-05-08T08:27:44;8.68;;;6.38;;
26756;SDS011;23848;49.798;10.228;2023-05-08T08:30:12;7.63;;;5.68;;
26756;SDS011;23848;49.798;10.228;2023-05-08T08:32:44;6.95;;;5.63;;
26756;SDS011;23848;49.798;10.228;2023-05-08T08:35:12;8.90;;;6.18;;
26756;SDS011;23848;49.798;10.228;2023-05-08T08:37:42;7.13;;;5.45;;
26756;SDS011;23848;49.798;10.228;2023-05-08T08:40:11;9.63;;;6.95;;
26756;SDS011;23848;49.798;10.228;2023-05-08T08:42:39;8.57;;;6.05;;
26756;SDS011;23848;49.798;10.228;2023-05-08T08:45:09;8.27;;;6.32;;
26756;SDS011;23848;49.798;10.228;2023-05-08T08:47:38;8.25;;;5.97;;
26756;SDS011;23848;49.798;10.228;2023-05-08T08:50:08;8.05;;;6.40;;
26756;SDS011;23848;49.798;10.228;2023-05-08T08:52:40;8.50;;;5.88;;
26756;SDS011;23848;49.798;10.228;2023-05-08T08:55:11;10.20;;;6.82;;
26756;SDS011;23848;49.798;10.228;2023-05-08T08:57:44;7.50;;;5.93;;
26756;SDS011;23848;49.798;10.228;2023-05-08T09:00:15;8.18;;;7.00;;
26756;SDS011;23848;49.798;10.228;2023-05-08T09:02:44;8.32;;;5.85;;
26756;SDS011;23848;49.798;10.228;2023-05-08T09:05:13;8.90;;;6.38;;
26756;SDS011;23848;49.798;10.228;2023-05-08T09:07:42;8.75;;;6.15;;
26756;SDS011;23848;49.798;10.228;2023-05-08T09:10:11;7.18;;;5.45;;
26756;SDS011;23848;49.798;10.228;2023-05-08T09:12:41;8.10;;;6.68;;
26756;SDS011;23848;49.798;10.228;2023-05-08T09:15:10;8.73;;;6.38;;
26756;SDS011;23848;49.798;10.228;2023-05-08T09:17:41;8.40;;;6.22;;
26756;SDS011;23848;49.798;10.228;2023-05-08T09:20:10;9.68;;;6.72;;
26756;SDS011;23848;49.798;10.228;2023-05-08T09:22:39;9.50;;;6.70;;
26756;SDS011;23848;49.798;10.228;2023-05-08T09:25:08;7.53;;;5.97;;
26756;SDS011;23848;49.798;10.228;2023-05-08T09:27:37;8.70;;;6.72;;
26756;SDS011;23848;49.798;10.228;2023-05-08T09:30:06;8.48;;;6.70;;
26756;SDS011;23848;49.798;10.228;2023-05-08T09:32:36;9.50;;;6.78;;
26756;SDS011;23848;49.798;10.228;2023-05-08T09:35:06;8.40;;;6.82;;
26756;SDS011;23848;49.798;10.228;2023-05-08T09:37:36;9.50;;;6.63;;
26756;SDS011;23848;49.798;10.228;2023-05-08T09:40:14;10.23;;;6.80;;
26756;SDS011;23848;49.798;10.228;2023-05-08T09:42:42;8.82;;;6.30;;
26756;SDS011;23848;49.798;10.228;2023-05-08T09:45:24;8.05;;;6.20;;
26756;SDS011;23848;49.798;10.228;2023-05-08T09:47:53;9.40;;;6.65;;
26756;SDS011;23848;49.798;10.228;2023-05-08T09:50:23;8.68;;;6.82;;
26756;SDS011;23848;49.798;10.228;2023-05-08T09:52:52;9.00;;;6.40;;
26756;SDS011;23848;49.798;10.228;2023-05-08T09:55:20;10.40;;;6.72;;
26756;SDS011;23848;49.798;10.228;2023-05-08T09:57:53;8.23;;;5.82;;
26756;SDS011;23848;49.798;10.228;2023-05-08T10:00:23;11.43;;;6.90;;
26756;SDS011;23848;49.798;10.228;2023-05-08T10:02:55;8.98;;;6.18;;
26756;SDS011;23848;49.798;10.228;2023-05-08T10:05:27;8.25;;;6.38;;
26756;SDS011;23848;49.798;10.228;2023-05-08T10:07:57;9.03;;;6.80;;
26756;SDS011;23848;49.798;10.228;2023-05-08T10:10:26;9.48;;;7.15;;
26756;SDS011;23848;49.798;10.228;2023-05-08T10:12:56;8.35;;;7.10;;
26756;SDS011;23848;49.798;10.228;2023-05-08T10:15:27;9.10;;;6.57;;
26756;SDS011;23848;49.798;10.228;2023-05-08T10:17:59;12.52;;;7.68;;
26756;SDS011;23848;49.798;10.228;2023-05-08T10:20:31;9.70;;;6.85;;
26756;SDS011;23848;49.798;10.228;2023-05-08T10:23:00;8.75;;;6.93;;
26756;SDS011;23848;49.798;10.228;2023-05-08T10:25:30;8.57;;;6.80;;
26756;SDS011;23848;49.798;10.228;2023-05-08T10:31:34;10.70;;;7.47;;
26756;SDS011;23848;49.798;10.228;2023-05-08T10:34:03;9.80;;;6.63;;
26756;SDS011;23848;49.798;10.228;2023-05-08T10:36:35;9.25;;;7.32;;
26756;SDS011;23848;49.798;10.228;2023-05-08T10:39:06;8.73;;;7.10;;
26756;SDS011;23848;49.798;10.228;2023-05-08T10:41:35;9.77;;;7.57;;
26756;SDS011;23848;49.798;10.228;2023-05-08T10:44:06;8.55;;;6.82;;
26756;SDS011;23848;49.798;10.228;2023-05-08T10:46:45;10.10;;;7.25;;
26756;SDS011;23848;49.798;10.228;2023-05-08T10:49:24;11.32;;;7.15;;
26756;SDS011;23848;49.798;10.228;2023-05-08T10:52:11;8.93;;;7.07;;
26756;SDS011;23848;49.798;10.228;2023-05-08T10:54:50;8.93;;;7.60;;
26756;SDS011;23848;49.798;10.228;2023-05-08T10:57:29;10.38;;;7.57;;
26756;SDS011;23848;49.798;10.228;2023-05-08T10:59:58;9.25;;;7.45;;
26756;SDS011;23848;49.798;10.228;2023-05-08T11:02:26;9.10;;;7.07;;
26756;SDS011;23848;49.798;10.228;2023-05-08T11:05:06;9.63;;;7.40;;
26756;SDS011;23848;49.798;10.228;2023-05-08T11:07:53;9.40;;;7.38;;
26756;SDS011;23848;49.798;10.228;2023-05-08T11:10:28;11.05;;;8.30;;
26756;SDS011;23848;49.798;10.228;2023-05-08T11:12:57;9.30;;;7.60;;
26756;SDS011;23848;49.798;10.228;2023-05-08T11:15:36;9.75;;;7.30;;
26756;SDS011;23848;49.798;10.228;2023-05-08T11:18:05;8.35;;;6.82;;
26756;SDS011;23848;49.798;10.228;2023-05-08T11:20:37;9.95;;;7.72;;
26756;SDS011;23848;49.798;10.228;2023-05-08T11:23:22;12.95;;;7.00;;
26756;SDS011;23848;49.798;10.228;2023-05-08T11:25:57;8.18;;;6.78;;
26756;SDS011;23848;49.798;10.228;2023-05-08T11:28:26;8.80;;;7.32;;
26756;SDS011;23848;49.798;10.228;2023-05-08T11:30:55;9.32;;;7.15;;
26756;SDS011;23848;49.798;10.228;2023-05-08T11:33:30;9.85;;;7.45;;
26756;SDS011;23848;49.798;10.228;2023-05-08T11:35:59;9.77;;;7.70;;
26756;SDS011;23848;49.798;10.228;2023-05-08T11:38:30;12.57;;;7.85;;
26756;SDS011;23848;49.798;10.228;2023-05-08T11:41:00;9.52;;;7.60;;
26756;SDS011;23848;49.798;10.228;2023-05-08T11:43:43;9.55;;;7.50;;
26756;SDS011;23848;49.798;10.228;2023-05-08T11:46:18;8.52;;;6.78;;
26756;SDS011;23848;49.798;10.228;2023-05-08T11:48:46;8.30;;;7.07;;
26756;SDS011;23848;49.798;10.228;2023-05-08T11:51:16;11.27;;;7.22;;
26756;SDS011;23848;49.798;10.228;2023-05-08T11:53:46;9.40;;;7.20;;
26756;SDS011;23848;49.798;10.228;2023-05-08T11:56:15;8.93;;;7.10;;
26756;SDS011;23848;49.798;10.228;2023-05-08T11:58:44;9.48;;;7.80;;
26756;SDS011;23848;49.798;10.228;2023-05-08T12:01:16;9.00;;;7.00;;
26756;SDS011;23848;49.798;10.228;2023-05-08T12:03:44;9.30;;;6.90;;
26756;SDS011;23848;49.798;10.228;2023-05-08T12:06:13;9.45;;;7.10;;
26756;SDS011;23848;49.798;10.228;2023-05-08T12:08:41;9.10;;;7.00;;
26756;SDS011;23848;49.798;10.228;2023-05-08T12:11:11;9.18;;;7.00;;
26756;SDS011;23848;49.798;10.228;2023-05-08T12:13:52;9.90;;;7.60;;
26756;SDS011;23848;49.798;10.228;2023-05-08T12:16:21;9.85;;;8.10;;
26756;SDS011;23848;49.798;10.228;2023-05-08T12:18:50;9.77;;;7.30;;
26756;SDS011;23848;49.798;10.228;2023-05-08T12:21:19;10.52;;;7.97;;
26756;SDS011;23848;49.798;10.228;2023-05-08T12:23:48;9.18;;;7.75;;
26756;SDS011;23848;49.798;10.228;2023-05-08T12:26:19;10.52;;;7.97;;
26756;SDS011;23848;49.798;10.228;2023-05-08T12:28:53;10.32;;;7.75;;
26756;SDS011;23848;49.798;10.228;2023-05-08T12:31:22;9.35;;;7.35;;
26756;SDS011;23848;49.798;10.228;2023-05-08T12:33:51;13.00;;;8.73;;
26756;SDS011;23848;49.798;10.228;2023-05-08T12:36:39;12.20;;;8.90;;
26756;SDS011;23848;49.798;10.228;2023-05-08T12:39:08;12.85;;;9.27;;
26756;SDS011;23848;49.798;10.228;2023-05-08T12:41:43;12.10;;;9.13;;
26756;SDS011;23848;49.798;10.228;2023-05-08T12:44:17;11.80;;;9.20;;
26756;SDS011;23848;49.798;10.228;2023-05-08T12:46:54;12.25;;;8.65;;
26756;SDS011;23848;49.798;10.228;2023-05-08T12:49:26;11.88;;;9.40;;
26756;SDS011;23848;49.798;10.228;2023-05-08T12:52:04;12.25;;;9.18;;
26756;SDS011;23848;49.798;10.228;2023-05-08T12:54:38;14.90;;;9.45;;
26756;SDS011;23848;49.798;10.228;2023-05-08T12:57:26;11.32;;;8.55;;
26756;SDS011;23848;49.798;10.228;2023-05-08T13:00:01;14.32;;;8.75;;
26756;SDS011;23848;49.798;10.228;2023-05-08T13:02:32;22.35;;;14.10;;
26756;SDS011;23848;49.798;10.228;2023-05-08T13:05:09;16.48;;;10.85;;
26756;SDS011;23848;49.798;10.228;2023-05-08T13:07:38;29.35;;;20.05;;
26756;SDS011;23848;49.798;10.228;2023-05-08T13:10:09;14.73;;;10.75;;
26756;SDS011;23848;49.798;10.228;2023-05-08T13:12:41;10.75;;;8.90;;
26756;SDS011;23848;49.798;10.228;2023-05-08T13:15:10;11.88;;;8.75;;
26756;SDS011;23848;49.798;10.228;2023-05-08T13:17:39;12.05;;;9.20;;
26756;SDS011;23848;49.798;10.228;2023-05-08T13:20:08;12.45;;;9.48;;
26756;SDS011;23848;49.798;10.228;2023-05-08T13:22:40;14.10;;;9.45;;
26756;SDS011;23848;49.798;10.228;2023-05-08T13:25:08;12.07;;;9.00;;
26756;SDS011;23848;49.798;10.228;2023-05-08T13:27:43;12.05;;;9.20;;
26756;SDS011;23848;49.798;10.228;2023-05-08T13:30:16;12.82;;;9.43;;
26756;SDS011;23848;49.798;10.228;2023-05-08T13:32:47;12.57;;;9.52;;
26756;SDS011;23848;49.798;10.228;2023-05-08T13:35:16;12.50;;;9.65;;
26756;SDS011;23848;49.798;10.228;2023-05-08T13:37:45;14.25;;;10.20;;
26756;SDS011;23848;49.798;10.228;2023-05-08T13:40:16;13.85;;;9.82;;
26756;SDS011;23848;49.798;10.228;2023-05-08T13:42:48;13.30;;;10.00;;
26756;SDS011;23848;49.798;10.228;2023-05-08T13:45:17;15.27;;;10.63;;
26756;SDS011;23848;49.798;10.228;2023-05-08T13:47:48;13.63;;;10.10;;
26756;SDS011;23848;49.798;10.228;2023-05-08T13:50:19;13.18;;;10.05;;
26756;SDS011;23848;49.798;10.228;2023-05-08T13:52:48;15.75;;;10.30;;
26756;SDS011;23848;49.798;10.228;2023-05-08T13:55:20;15.02;;;11.57;;
26756;SDS011;23848;49.798;10.228;2023-05-08T13:57:49;12.60;;;10.15;;
26756;SDS011;23848;49.798;10.228;2023-05-08T14:00:19;14.13;;;10.52;;
26756;SDS011;23848;49.798;10.228;2023-05-08T14:02:47;12.40;;;9.88;;
26756;SDS011;23848;49.798;10.228;2023-05-08T14:05:18;12.35;;;10.13;;
26756;SDS011;23848;49.798;10.228;2023-05-08T14:07:50;12.25;;;9.77;;
26756;SDS011;23848;49.798;10.228;2023-05-08T14:10:21;13.95;;;9.85;;
26756;SDS011;23848;49.798;10.228;2023-05-08T14:12:54;13.90;;;9.20;;
26756;SDS011;23848;49.798;10.228;2023-05-08T14:15:26;12.48;;;10.10;;
26756;SDS011;23848;49.798;10.228;2023-05-08T14:18:04;12.85;;;10.02;;
26756;SDS011;23848;49.798;10.228;2023-05-08T14:20:34;12.63;;;9.27;;
26756;SDS011;23848;49.798;10.228;2023-05-08T14:23:02;13.23;;;9.73;;
26756;SDS011;23848;49.798;10.228;2023-05-08T14:25:31;11.82;;;9.40;;
26756;SDS011;23848;49.798;10.228;2023-05-08T14:28:01;11.65;;;8.73;;
26756;SDS011;23848;49.798;10.228;2023-05-08T14:30:35;14.52;;;10.40;;
26756;SDS011;23848;49.798;10.228;2023-05-08T14:35:38;14.73;;;10.52;;
26756;SDS011;23848;49.798;10.228;2023-05-08T14:38:09;13.40;;;9.77;;
26756;SDS011;23848;49.798;10.228;2023-05-08T14:40:42;15.60;;;10.77;;
26756;SDS011;23848;49.798;10.228;2023-05-08T14:43:21;13.75;;;10.45;;
26756;SDS011;23848;49.798;10.228;2023-05-08T14:46:00;14.75;;;10.35;;
26756;SDS011;23848;49.798;10.228;2023-05-08T14:48:32;12.13;;;9.60;;
26756;SDS011;23848;49.798;10.228;2023-05-08T14:51:05;12.32;;;9.27;;
26756;SDS011;23848;49.798;10.228;2023-05-08T14:53:33;12.48;;;8.93;;
26756;SDS011;23848;49.798;10.228;2023-05-08T14:56:02;11.63;;;8.85;;
26756;SDS011;23848;49.798;10.228;2023-05-08T14:58:32;12.10;;;9.45;;
26756;SDS011;23848;49.798;10.228;2023-05-08T15:01:02;11.85;;;9.00;;